sensor_id;sensor_type;location;lat;lon;timestamp;P1;durP1;ratioP1;P2;durP2;ratioP2
8556;SDS011;4316;53.840;10.762;2023-02-15T00:01:20;17.17;;;12.37;;
8556;SDS011;4316;53.840;10.762;2023-02-15T00:03:47;20.33;;;13.57;;
8556;SDS011;4316;53.840;10.762;2023-02-15T00:06:14;17.60;;;12.40;;
8556;SDS011;4316;53.840;10.762;2023-02-15T00:08:40;20.10;;;13.00;;
8556;SDS011;4316;53.840;10.762;2023-02-15T00:11:06;20.60;;;13.43;;
8556;SDS011;4316;53.840;10.762;2023-02-15T00:13:33;29.77;;;11.63;;
8556;SDS011;4316;53.840;10.762;2023-02-15T00:16:05;16.20;;;11.63;;
8556;SDS011;4316;53.840;10.762;2023-02-15T00:18:34;18.40;;;12.27;;
8556;SDS011;4316;53.840;10.762;2023-02-15T00:21:03;18.60;;;13.03;;
8556;SDS011;4316;53.840;10.762;2023-02-15T00:23:31;18.40;;;13.00;;
8556;SDS011;4316;53.840;10.762;2023-02-15T00:26:10;16.63;;;12.87;;
8556;SDS011;4316;53.840;10.762;2023-02-15T00:28:37;23.83;;;13.93;;
8556;SDS011;4316;53.840;10.762;2023-02-15T00:31:07;19.00;;;15.20;;
8556;SDS011;4316;53.840;10.762;2023-02-15T00:33:35;19.47;;;13.97;;
8556;SDS011;4316;53.840;10.762;2023-02-15T00:36:02;20.40;;;14.10;;
8556;SDS011;4316;53.840;10.762;2023-02-15T00:38:29;17.87;;;13.33;;
8556;SDS011;4316;53.840;10.762;2023-02-15T00:40:57;19.73;;;14.00;;
8556;SDS011;4316;53.840;10.762;2023-02-15T00:43:24;17.33;;;13.67;;
8556;SDS011;4316;53.840;10.762;2023-02-15T00:45:51;20.50;;;14.10;;
8556;SDS011;4316;53.840;10.762;2023-02-15T00:48:17;15.63;;;11.70;;
8556;SDS011;4316;53.840;10.762;2023-02-15T00:50:48;17.60;;;12.63;;
8556;SDS011;4316;53.840;10.762;2023-02-15T00:53:15;21.33;;;12.63;;
8556;SDS011;4316;53.840;10.762;2023-02-15T00:55:41;18.37;;;13.00;;
8556;SDS011;4316;53.840;10.762;2023-02-15T00:58:08;20.00;;;13.20;;
8556;SDS011;4316;53.840;10.762;2023-02-15T01:00:34;17.43;;;12.60;;
8556;SDS011;4316;53.840;10.762;2023-02-15T01:03:01;18.13;;;13.03;;
8556;SDS011;4316;53.840;10.762;2023-02-15T01:05:27;17.87;;;12.57;;
8556;SDS011;4316;53.840;10.762;2023-02-15T01:07:55;18.57;;;12.67;;
8556;SDS011;4316;53.840;10.762;2023-02-15T01:10:21;16.17;;;11.73;;
8556;SDS011;4316;53.840;10.762;2023-02-15T01:12:47;17.57;;;11.73;;
8556;SDS011;4316;53.840;10.762;2023-02-15T01:15:14;18.13;;;12.83;;
8556;SDS011;4316;53.840;10.762;2023-02-15T01:17:40;17.73;;;13.30;;
8556;SDS011;4316;53.840;10.762;2023-02-15T01:20:06;19.20;;;13.60;;
8556;SDS011;4316;53.840;10.762;2023-02-15T01:22:32;21.10;;;13.07;;
8556;SDS011;4316;53.840;10.762;2023-02-15T01:25:00;19.23;;;13.53;;
8556;SDS011;4316;53.840;10.762;2023-02-15T01:27:28;22.00;;;14.50;;
8556;SDS011;4316;53.840;10.762;2023-02-15T01:29:56;20.30;;;13.87;;
8556;SDS011;4316;53.840;10.762;2023-02-15T01:32:22;21.10;;;14.10;;
8556;SDS011;4316;53.840;10.762;2023-02-15T01:34:48;20.53;;;13.00;;
8556;SDS011;4316;53.840;10.762;2023-02-15T01:37:13;18.07;;;13.27;;
8556;SDS011;4316;53.840;10.762;2023-02-15T01:39:40;17.47;;;12.77;;
8556;SDS011;4316;53.840;10.762;2023-02-15T01:42:09;20.07;;;14.43;;
8556;SDS011;4316;53.840;10.762;2023-02-15T01:47:12;19.03;;;14.17;;
8556;SDS011;4316;53.840;10.762;2023-02-15T01:49:43;22.20;;;14.53;;
8556;SDS011;4316;53.840;10.762;2023-02-15T01:52:11;19.97;;;13.40;;
8556;SDS011;4316;53.840;10.762;2023-02-15T01:54:42;20.00;;;13.93;;
8556;SDS011;4316;53.840;10.762;2023-02-15T01:57:13;17.43;;;12.70;;
8556;SDS011;4316;53.840;10.762;2023-02-15T01:59:46;21.43;;;13.20;;
8556;SDS011;4316;53.840;10.762;2023-02-15T02:02:15;18.97;;;13.57;;
8556;SDS011;4316;53.840;10.762;2023-02-15T02:04:49;20.93;;;13.73;;
8556;SDS011;4316;53.840;10.762;2023-02-15T02:07:18;20.43;;;14.50;;
8556;SDS011;4316;53.840;10.762;2023-02-15T02:09:47;21.23;;;14.37;;
8556;SDS011;4316;53.840;10.762;2023-02-15T02:12:13;20.67;;;13.93;;
8556;SDS011;4316;53.840;10.762;2023-02-15T02:14:41;20.53;;;13.87;;
8556;SDS011;4316;53.840;10.762;2023-02-15T02:20:11;25.80;;;14.63;;
8556;SDS011;4316;53.840;10.762;2023-02-15T02:34:17;27.37;;;15.63;;
8556;SDS011;4316;53.840;10.762;2023-02-15T02:36:58;27.67;;;15.83;;
8556;SDS011;4316;53.840;10.762;2023-02-15T02:47:52;21.73;;;15.83;;
8556;SDS011;4316;53.840;10.762;2023-02-15T02:50:26;26.87;;;15.50;;
8556;SDS011;4316;53.840;10.762;2023-02-15T02:52:54;19.53;;;14.90;;
8556;SDS011;4316;53.840;10.762;2023-02-15T02:55:30;24.73;;;15.13;;
8556;SDS011;4316;53.840;10.762;2023-02-15T02:58:03;27.27;;;15.83;;
8556;SDS011;4316;53.840;10.762;2023-02-15T03:00:34;21.63;;;15.00;;
8556;SDS011;4316;53.840;10.762;2023-02-15T03:03:14;27.47;;;16.10;;
8556;SDS011;4316;53.840;10.762;2023-02-15T03:05:46;20.87;;;15.23;;
8556;SDS011;4316;53.840;10.762;2023-02-15T03:08:14;21.63;;;15.20;;
8556;SDS011;4316;53.840;10.762;2023-02-15T03:10:47;19.60;;;13.90;;
8556;SDS011;4316;53.840;10.762;2023-02-15T03:13:17;26.47;;;15.83;;
8556;SDS011;4316;53.840;10.762;2023-02-15T03:15:43;25.03;;;15.70;;
8556;SDS011;4316;53.840;10.762;2023-02-15T03:18:34;25.43;;;15.80;;
8556;SDS011;4316;53.840;10.762;2023-02-15T03:21:09;22.87;;;15.23;;
8556;SDS011;4316;53.840;10.762;2023-02-15T03:23:54;23.00;;;15.90;;
8556;SDS011;4316;53.840;10.762;2023-02-15T03:26:26;21.43;;;15.53;;
8556;SDS011;4316;53.840;10.762;2023-02-15T03:28:54;25.07;;;15.73;;
8556;SDS011;4316;53.840;10.762;2023-02-15T03:31:22;25.70;;;17.40;;
8556;SDS011;4316;53.840;10.762;2023-02-15T03:33:58;22.83;;;15.80;;
8556;SDS011;4316;53.840;10.762;2023-02-15T03:36:32;22.17;;;15.70;;
8556;SDS011;4316;53.840;10.762;2023-02-15T03:44:32;22.00;;;15.50;;
8556;SDS011;4316;53.840;10.762;2023-02-15T03:47:05;24.57;;;17.33;;
8556;SDS011;4316;53.840;10.762;2023-02-15T03:49:38;28.97;;;17.20;;
8556;SDS011;4316;53.840;10.762;2023-02-15T03:52:19;27.70;;;17.43;;
8556;SDS011;4316;53.840;10.762;2023-02-15T03:54:48;21.17;;;15.53;;
8556;SDS011;4316;53.840;10.762;2023-02-15T04:00:14;23.27;;;16.07;;
8556;SDS011;4316;53.840;10.762;2023-02-15T04:03:18;22.57;;;15.43;;
8556;SDS011;4316;53.840;10.762;2023-02-15T04:05:51;25.00;;;16.23;;
8556;SDS011;4316;53.840;10.762;2023-02-15T04:08:16;25.87;;;17.23;;
8556;SDS011;4316;53.840;10.762;2023-02-15T04:10:42;23.43;;;17.13;;
8556;SDS011;4316;53.840;10.762;2023-02-15T04:13:21;24.40;;;16.93;;
8556;SDS011;4316;53.840;10.762;2023-02-15T04:15:48;28.10;;;17.00;;
8556;SDS011;4316;53.840;10.762;2023-02-15T04:18:39;25.83;;;15.57;;
8556;SDS011;4316;53.840;10.762;2023-02-15T04:21:25;27.27;;;15.33;;
8556;SDS011;4316;53.840;10.762;2023-02-15T04:24:12;20.10;;;14.43;;
8556;SDS011;4316;53.840;10.762;2023-02-15T04:26:57;22.37;;;15.13;;
8556;SDS011;4316;53.840;10.762;2023-02-15T04:29:24;22.50;;;14.93;;
8556;SDS011;4316;53.840;10.762;2023-02-15T04:31:51;24.63;;;15.00;;
8556;SDS011;4316;53.840;10.762;2023-02-15T04:34:18;21.37;;;15.57;;
8556;SDS011;4316;53.840;10.762;2023-02-15T04:36:44;21.50;;;15.90;;
8556;SDS011;4316;53.840;10.762;2023-02-15T04:39:12;23.23;;;16.50;;
8556;SDS011;4316;53.840;10.762;2023-02-15T04:41:38;26.13;;;15.93;;
8556;SDS011;4316;53.840;10.762;2023-02-15T04:44:04;26.90;;;17.93;;
8556;SDS011;4316;53.840;10.762;2023-02-15T04:46:30;19.33;;;15.13;;
8556;SDS011;4316;53.840;10.762;2023-02-15T04:48:59;21.73;;;15.90;;
8556;SDS011;4316;53.840;10.762;2023-02-15T04:51:25;27.40;;;17.83;;
8556;SDS011;4316;53.840;10.762;2023-02-15T04:53:51;25.00;;;17.37;;
8556;SDS011;4316;53.840;10.762;2023-02-15T04:56:18;24.27;;;17.70;;
8556;SDS011;4316;53.840;10.762;2023-02-15T04:58:44;29.73;;;18.10;;
8556;SDS011;4316;53.840;10.762;2023-02-15T05:01:10;26.67;;;18.80;;
8556;SDS011;4316;53.840;10.762;2023-02-15T05:03:36;30.63;;;18.73;;
8556;SDS011;4316;53.840;10.762;2023-02-15T05:06:02;28.77;;;18.30;;
8556;SDS011;4316;53.840;10.762;2023-02-15T05:08:28;27.37;;;18.93;;
8556;SDS011;4316;53.840;10.762;2023-02-15T05:10:55;27.37;;;19.07;;
8556;SDS011;4316;53.840;10.762;2023-02-15T05:13:22;26.17;;;17.63;;
8556;SDS011;4316;53.840;10.762;2023-02-15T05:15:50;27.13;;;19.27;;
8556;SDS011;4316;53.840;10.762;2023-02-15T05:18:17;29.33;;;18.70;;
8556;SDS011;4316;53.840;10.762;2023-02-15T05:20:44;24.40;;;17.40;;
8556;SDS011;4316;53.840;10.762;2023-02-15T05:23:10;28.17;;;18.97;;
8556;SDS011;4316;53.840;10.762;2023-02-15T05:25:36;25.43;;;19.10;;
8556;SDS011;4316;53.840;10.762;2023-02-15T05:28:20;26.53;;;19.47;;
8556;SDS011;4316;53.840;10.762;2023-02-15T05:30:47;28.47;;;20.53;;
8556;SDS011;4316;53.840;10.762;2023-02-15T05:33:15;25.70;;;18.73;;
8556;SDS011;4316;53.840;10.762;2023-02-15T05:35:41;34.13;;;20.03;;
8556;SDS011;4316;53.840;10.762;2023-02-15T05:38:06;26.90;;;20.07;;
8556;SDS011;4316;53.840;10.762;2023-02-15T05:40:32;32.07;;;21.03;;
8556;SDS011;4316;53.840;10.762;2023-02-15T05:42:58;28.40;;;19.67;;
8556;SDS011;4316;53.840;10.762;2023-02-15T05:45:24;34.23;;;21.07;;
8556;SDS011;4316;53.840;10.762;2023-02-15T05:47:50;29.60;;;20.47;;
8556;SDS011;4316;53.840;10.762;2023-02-15T05:50:16;32.23;;;20.70;;
8556;SDS011;4316;53.840;10.762;2023-02-15T05:52:42;35.60;;;21.00;;
8556;SDS011;4316;53.840;10.762;2023-02-15T05:55:08;30.43;;;21.43;;
8556;SDS011;4316;53.840;10.762;2023-02-15T05:57:34;38.03;;;23.13;;
8556;SDS011;4316;53.840;10.762;2023-02-15T06:00:00;33.80;;;22.03;;
8556;SDS011;4316;53.840;10.762;2023-02-15T06:02:36;30.13;;;22.00;;
8556;SDS011;4316;53.840;10.762;2023-02-15T06:05:03;35.63;;;23.60;;
8556;SDS011;4316;53.840;10.762;2023-02-15T06:07:30;44.23;;;24.70;;
8556;SDS011;4316;53.840;10.762;2023-02-15T06:09:56;38.23;;;23.40;;
8556;SDS011;4316;53.840;10.762;2023-02-15T06:12:22;41.47;;;24.43;;
8556;SDS011;4316;53.840;10.762;2023-02-15T06:14:47;40.17;;;24.93;;
8556;SDS011;4316;53.840;10.762;2023-02-15T06:17:13;38.90;;;26.00;;
8556;SDS011;4316;53.840;10.762;2023-02-15T06:19:39;38.67;;;25.70;;
8556;SDS011;4316;53.840;10.762;2023-02-15T06:22:04;46.57;;;27.83;;
8556;SDS011;4316;53.840;10.762;2023-02-15T06:24:31;46.60;;;28.03;;
8556;SDS011;4316;53.840;10.762;2023-02-15T06:26:57;45.57;;;26.83;;
8556;SDS011;4316;53.840;10.762;2023-02-15T06:29:23;47.27;;;28.97;;
8556;SDS011;4316;53.840;10.762;2023-02-15T06:31:49;48.30;;;29.20;;
8556;SDS011;4316;53.840;10.762;2023-02-15T06:34:14;54.43;;;27.40;;
8556;SDS011;4316;53.840;10.762;2023-02-15T06:36:40;44.80;;;26.27;;
8556;SDS011;4316;53.840;10.762;2023-02-15T06:39:06;272.97;;;29.00;;
8556;SDS011;4316;53.840;10.762;2023-02-15T06:41:32;118.60;;;30.40;;
8556;SDS011;4316;53.840;10.762;2023-02-15T06:43:57;239.30;;;30.70;;
8556;SDS011;4316;53.840;10.762;2023-02-15T06:46:23;143.23;;;29.07;;
8556;SDS011;4316;53.840;10.762;2023-02-15T06:48:49;206.30;;;27.90;;
8556;SDS011;4316;53.840;10.762;2023-02-15T06:51:15;88.13;;;25.70;;
8556;SDS011;4316;53.840;10.762;2023-02-15T06:53:40;172.17;;;28.93;;
8556;SDS011;4316;53.840;10.762;2023-02-15T06:56:08;266.53;;;35.00;;
8556;SDS011;4316;53.840;10.762;2023-02-15T06:58:38;262.47;;;29.27;;
8556;SDS011;4316;53.840;10.762;2023-02-15T07:01:05;47.37;;;24.77;;
8556;SDS011;4316;53.840;10.762;2023-02-15T07:03:32;37.93;;;25.67;;
8556;SDS011;4316;53.840;10.762;2023-02-15T07:05:58;37.83;;;25.00;;
8556;SDS011;4316;53.840;10.762;2023-02-15T07:08:26;36.37;;;25.80;;
8556;SDS011;4316;53.840;10.762;2023-02-15T07:10:52;169.73;;;31.97;;
8556;SDS011;4316;53.840;10.762;2023-02-15T07:13:20;116.67;;;26.13;;
8556;SDS011;4316;53.840;10.762;2023-02-15T07:15:46;35.27;;;23.30;;
8556;SDS011;4316;53.840;10.762;2023-02-15T07:18:12;61.07;;;22.57;;
8556;SDS011;4316;53.840;10.762;2023-02-15T07:20:39;46.73;;;21.47;;
8556;SDS011;4316;53.840;10.762;2023-02-15T07:23:07;46.83;;;21.57;;
8556;SDS011;4316;53.840;10.762;2023-02-15T07:25:33;84.07;;;21.17;;
8556;SDS011;4316;53.840;10.762;2023-02-15T07:28:01;29.83;;;21.47;;
8556;SDS011;4316;53.840;10.762;2023-02-15T07:30:29;140.07;;;22.77;;
8556;SDS011;4316;53.840;10.762;2023-02-15T07:32:56;129.00;;;23.83;;
8556;SDS011;4316;53.840;10.762;2023-02-15T07:35:47;222.33;;;27.20;;
8556;SDS011;4316;53.840;10.762;2023-02-15T07:38:18;111.53;;;25.40;;
8556;SDS011;4316;53.840;10.762;2023-02-15T07:40:44;58.63;;;23.47;;
8556;SDS011;4316;53.840;10.762;2023-02-15T07:43:10;255.37;;;26.53;;
8556;SDS011;4316;53.840;10.762;2023-02-15T07:45:37;242.30;;;25.87;;
8556;SDS011;4316;53.840;10.762;2023-02-15T07:48:03;159.80;;;25.93;;
8556;SDS011;4316;53.840;10.762;2023-02-15T07:50:30;199.23;;;26.23;;
8556;SDS011;4316;53.840;10.762;2023-02-15T07:52:57;64.10;;;19.67;;
8556;SDS011;4316;53.840;10.762;2023-02-15T07:55:23;188.73;;;27.43;;
8556;SDS011;4316;53.840;10.762;2023-02-15T07:57:49;137.03;;;24.93;;
8556;SDS011;4316;53.840;10.762;2023-02-15T08:00:16;76.37;;;26.83;;
8556;SDS011;4316;53.840;10.762;2023-02-15T08:02:48;43.30;;;25.60;;
8556;SDS011;4316;53.840;10.762;2023-02-15T08:05:38;112.07;;;24.80;;
8556;SDS011;4316;53.840;10.762;2023-02-15T08:08:06;136.33;;;26.87;;
8556;SDS011;4316;53.840;10.762;2023-02-15T08:10:35;120.97;;;29.23;;
8556;SDS011;4316;53.840;10.762;2023-02-15T08:13:20;196.83;;;28.27;;
8556;SDS011;4316;53.840;10.762;2023-02-15T08:15:49;170.50;;;28.33;;
8556;SDS011;4316;53.840;10.762;2023-02-15T08:18:15;258.83;;;30.07;;
8556;SDS011;4316;53.840;10.762;2023-02-15T08:20:41;181.33;;;28.57;;
8556;SDS011;4316;53.840;10.762;2023-02-15T08:23:07;135.60;;;29.17;;
8556;SDS011;4316;53.840;10.762;2023-02-15T08:25:33;62.03;;;27.13;;
8556;SDS011;4316;53.840;10.762;2023-02-15T08:27:58;47.83;;;26.70;;
8556;SDS011;4316;53.840;10.762;2023-02-15T08:30:24;47.17;;;25.67;;
8556;SDS011;4316;53.840;10.762;2023-02-15T08:32:50;36.40;;;24.37;;
8556;SDS011;4316;53.840;10.762;2023-02-15T08:35:16;33.50;;;24.37;;
8556;SDS011;4316;53.840;10.762;2023-02-15T08:37:42;78.57;;;26.73;;
8556;SDS011;4316;53.840;10.762;2023-02-15T08:40:08;68.80;;;25.03;;
8556;SDS011;4316;53.840;10.762;2023-02-15T08:42:34;95.43;;;25.50;;
8556;SDS011;4316;53.840;10.762;2023-02-15T08:44:59;38.47;;;23.87;;
8556;SDS011;4316;53.840;10.762;2023-02-15T08:47:25;68.60;;;22.20;;
8556;SDS011;4316;53.840;10.762;2023-02-15T08:49:51;36.03;;;22.03;;
8556;SDS011;4316;53.840;10.762;2023-02-15T08:52:17;34.67;;;22.83;;
8556;SDS011;4316;53.840;10.762;2023-02-15T08:54:42;47.97;;;24.77;;
8556;SDS011;4316;53.840;10.762;2023-02-15T08:57:08;293.90;;;28.07;;
8556;SDS011;4316;53.840;10.762;2023-02-15T08:59:35;187.67;;;27.33;;
8556;SDS011;4316;53.840;10.762;2023-02-15T09:02:01;127.80;;;26.07;;
8556;SDS011;4316;53.840;10.762;2023-02-15T09:04:28;104.67;;;23.53;;
8556;SDS011;4316;53.840;10.762;2023-02-15T09:06:54;188.63;;;27.47;;
8556;SDS011;4316;53.840;10.762;2023-02-15T09:09:20;111.83;;;24.93;;
8556;SDS011;4316;53.840;10.762;2023-02-15T09:11:47;143.10;;;27.93;;
8556;SDS011;4316;53.840;10.762;2023-02-15T09:14:17;163.37;;;26.53;;
8556;SDS011;4316;53.840;10.762;2023-02-15T09:16:45;224.87;;;29.33;;
8556;SDS011;4316;53.840;10.762;2023-02-15T09:19:14;253.40;;;32.67;;
8556;SDS011;4316;53.840;10.762;2023-02-15T09:21:41;337.17;;;29.67;;
8556;SDS011;4316;53.840;10.762;2023-02-15T09:24:08;205.67;;;26.13;;
8556;SDS011;4316;53.840;10.762;2023-02-15T09:26:36;166.10;;;26.60;;
8556;SDS011;4316;53.840;10.762;2023-02-15T09:29:07;322.90;;;34.43;;
8556;SDS011;4316;53.840;10.762;2023-02-15T09:31:37;183.23;;;27.67;;
8556;SDS011;4316;53.840;10.762;2023-02-15T09:34:09;69.03;;;23.90;;
8556;SDS011;4316;53.840;10.762;2023-02-15T09:36:37;214.30;;;29.20;;
8556;SDS011;4316;53.840;10.762;2023-02-15T09:39:18;330.27;;;32.37;;
8556;SDS011;4316;53.840;10.762;2023-02-15T09:47:47;44.40;;;25.77;;
8556;SDS011;4316;53.840;10.762;2023-02-15T10:34:15;53.33;;;32.37;;
8556;SDS011;4316;53.840;10.762;2023-02-15T10:45:52;53.73;;;21.10;;
8556;SDS011;4316;53.840;10.762;2023-02-15T10:50:55;60.87;;;38.40;;
8556;SDS011;4316;53.840;10.762;2023-02-15T10:53:26;52.90;;;33.60;;
8556;SDS011;4316;53.840;10.762;2023-02-15T10:58:37;57.70;;;23.83;;
8556;SDS011;4316;53.840;10.762;2023-02-15T11:01:20;43.87;;;22.07;;
8556;SDS011;4316;53.840;10.762;2023-02-15T11:06:14;38.57;;;24.53;;
8556;SDS011;4316;53.840;10.762;2023-02-15T11:08:47;33.50;;;22.97;;
8556;SDS011;4316;53.840;10.762;2023-02-15T11:13:50;35.87;;;21.20;;
8556;SDS011;4316;53.840;10.762;2023-02-15T11:16:21;39.17;;;21.40;;
8556;SDS011;4316;53.840;10.762;2023-02-15T11:18:58;29.90;;;20.83;;
8556;SDS011;4316;53.840;10.762;2023-02-15T11:21:37;27.87;;;20.13;;
8556;SDS011;4316;53.840;10.762;2023-02-15T11:24:10;30.23;;;19.53;;
8556;SDS011;4316;53.840;10.762;2023-02-15T11:26:46;33.60;;;19.60;;
8556;SDS011;4316;53.840;10.762;2023-02-15T11:29:26;26.40;;;18.87;;
8556;SDS011;4316;53.840;10.762;2023-02-15T11:32:01;27.90;;;20.53;;
8556;SDS011;4316;53.840;10.762;2023-02-15T11:34:31;29.33;;;16.70;;
8556;SDS011;4316;53.840;10.762;2023-02-15T11:37:06;34.57;;;21.90;;
8556;SDS011;4316;53.840;10.762;2023-02-15T11:39:35;167.73;;;25.40;;
8556;SDS011;4316;53.840;10.762;2023-02-15T11:42:04;86.90;;;24.23;;
8556;SDS011;4316;53.840;10.762;2023-02-15T11:45:14;33.73;;;22.07;;
8556;SDS011;4316;53.840;10.762;2023-02-15T11:47:28;32.77;;;23.93;;
8556;SDS011;4316;53.840;10.762;2023-02-15T11:49:53;25.40;;;19.37;;
8556;SDS011;4316;53.840;10.762;2023-02-15T11:52:19;32.00;;;21.33;;
8556;SDS011;4316;53.840;10.762;2023-02-15T11:54:49;28.20;;;20.50;;
8556;SDS011;4316;53.840;10.762;2023-02-15T11:57:22;30.00;;;22.30;;
8556;SDS011;4316;53.840;10.762;2023-02-15T12:00:02;31.47;;;22.07;;
8556;SDS011;4316;53.840;10.762;2023-02-15T12:02:37;37.37;;;22.73;;
8556;SDS011;4316;53.840;10.762;2023-02-15T12:05:09;34.10;;;23.10;;
8556;SDS011;4316;53.840;10.762;2023-02-15T12:07:42;31.60;;;22.57;;
8556;SDS011;4316;53.840;10.762;2023-02-15T12:10:19;62.30;;;22.87;;
8556;SDS011;4316;53.840;10.762;2023-02-15T12:13:08;44.60;;;22.80;;
8556;SDS011;4316;53.840;10.762;2023-02-15T12:15:34;29.17;;;20.77;;
8556;SDS011;4316;53.840;10.762;2023-02-15T12:18:01;35.53;;;22.47;;
8556;SDS011;4316;53.840;10.762;2023-02-15T12:20:31;34.37;;;22.87;;
8556;SDS011;4316;53.840;10.762;2023-02-15T12:23:05;31.67;;;21.17;;
8556;SDS011;4316;53.840;10.762;2023-02-15T12:25:41;40.17;;;20.87;;
8556;SDS011;4316;53.840;10.762;2023-02-15T12:28:50;35.53;;;24.10;;
8556;SDS011;4316;53.840;10.762;2023-02-15T12:31:24;32.50;;;20.63;;
8556;SDS011;4316;53.840;10.762;2023-02-15T12:33:56;54.07;;;20.40;;
8556;SDS011;4316;53.840;10.762;2023-02-15T12:36:25;30.67;;;22.53;;
8556;SDS011;4316;53.840;10.762;2023-02-15T12:39:03;28.43;;;20.93;;
8556;SDS011;4316;53.840;10.762;2023-02-15T12:41:38;47.83;;;19.40;;
8556;SDS011;4316;53.840;10.762;2023-02-15T12:44:20;35.47;;;25.50;;
8556;SDS011;4316;53.840;10.762;2023-02-15T12:49:32;27.33;;;19.03;;
8556;SDS011;4316;53.840;10.762;2023-02-15T12:52:06;27.60;;;20.63;;
8556;SDS011;4316;53.840;10.762;2023-02-15T12:54:49;26.97;;;19.93;;
8556;SDS011;4316;53.840;10.762;2023-02-15T12:57:20;28.67;;;20.37;;
8556;SDS011;4316;53.840;10.762;2023-02-15T12:59:48;24.70;;;18.23;;
8556;SDS011;4316;53.840;10.762;2023-02-15T13:02:25;34.57;;;26.57;;
8556;SDS011;4316;53.840;10.762;2023-02-15T13:11:08;26.73;;;18.13;;
8556;SDS011;4316;53.840;10.762;2023-02-15T13:13:36;42.70;;;19.97;;
8556;SDS011;4316;53.840;10.762;2023-02-15T13:16:15;26.70;;;19.10;;
8556;SDS011;4316;53.840;10.762;2023-02-15T13:18:52;25.33;;;19.63;;
8556;SDS011;4316;53.840;10.762;2023-02-15T13:21:19;25.40;;;18.20;;
8556;SDS011;4316;53.840;10.762;2023-02-15T13:23:51;21.27;;;16.93;;
8556;SDS011;4316;53.840;10.762;2023-02-15T13:26:41;21.63;;;16.87;;
8556;SDS011;4316;53.840;10.762;2023-02-15T13:29:12;20.03;;;16.57;;
8556;SDS011;4316;53.840;10.762;2023-02-15T13:31:49;19.37;;;16.30;;
8556;SDS011;4316;53.840;10.762;2023-02-15T13:34:23;21.17;;;16.47;;
8556;SDS011;4316;53.840;10.762;2023-02-15T13:39:51;22.90;;;16.47;;
8556;SDS011;4316;53.840;10.762;2023-02-15T13:42:27;21.97;;;16.97;;
8556;SDS011;4316;53.840;10.762;2023-02-15T13:45:36;22.57;;;17.20;;
8556;SDS011;4316;53.840;10.762;2023-02-15T13:48:26;26.60;;;17.67;;
8556;SDS011;4316;53.840;10.762;2023-02-15T13:51:22;23.80;;;17.20;;
8556;SDS011;4316;53.840;10.762;2023-02-15T14:08:12;21.30;;;17.10;;
8556;SDS011;4316;53.840;10.762;2023-02-15T14:11:01;25.43;;;17.93;;
8556;SDS011;4316;53.840;10.762;2023-02-15T14:24:40;22.83;;;18.17;;
8556;SDS011;4316;53.840;10.762;2023-02-15T14:27:25;28.37;;;19.53;;
8556;SDS011;4316;53.840;10.762;2023-02-15T14:30:18;23.90;;;18.90;;
8556;SDS011;4316;53.840;10.762;2023-02-15T14:32:49;24.87;;;18.57;;
8556;SDS011;4316;53.840;10.762;2023-02-15T14:35:29;25.20;;;20.03;;
8556;SDS011;4316;53.840;10.762;2023-02-15T14:46:35;32.53;;;23.27;;
8556;SDS011;4316;53.840;10.762;2023-02-15T14:49:17;36.60;;;24.20;;
8556;SDS011;4316;53.840;10.762;2023-02-15T14:56:45;40.20;;;26.13;;
8556;SDS011;4316;53.840;10.762;2023-02-15T14:59:17;40.73;;;27.33;;
8556;SDS011;4316;53.840;10.762;2023-02-15T15:01:53;38.63;;;27.17;;
8556;SDS011;4316;53.840;10.762;2023-02-15T15:04:26;41.93;;;27.03;;
8556;SDS011;4316;53.840;10.762;2023-02-15T15:09:34;49.53;;;30.73;;
8556;SDS011;4316;53.840;10.762;2023-02-15T15:14:57;48.70;;;31.23;;
8556;SDS011;4316;53.840;10.762;2023-02-15T15:22:26;56.67;;;33.77;;
8556;SDS011;4316;53.840;10.762;2023-02-15T15:43:53;58.47;;;33.40;;
8556;SDS011;4316;53.840;10.762;2023-02-15T15:49:20;48.57;;;32.17;;
8556;SDS011;4316;53.840;10.762;2023-02-15T15:51:48;50.57;;;31.33;;
8556;SDS011;4316;53.840;10.762;2023-02-15T15:54:19;47.47;;;30.63;;
8556;SDS011;4316;53.840;10.762;2023-02-15T15:56:48;81.70;;;31.47;;
8556;SDS011;4316;53.840;10.762;2023-02-15T15:59:22;46.30;;;30.03;;
8556;SDS011;4316;53.840;10.762;2023-02-15T16:01:53;48.77;;;29.93;;
8556;SDS011;4316;53.840;10.762;2023-02-15T16:04:26;42.13;;;28.10;;
8556;SDS011;4316;53.840;10.762;2023-02-15T16:06:55;46.60;;;29.20;;
8556;SDS011;4316;53.840;10.762;2023-02-15T16:09:23;47.60;;;29.90;;
8556;SDS011;4316;53.840;10.762;2023-02-15T16:11:52;84.40;;;30.20;;
8556;SDS011;4316;53.840;10.762;2023-02-15T16:16:53;48.67;;;30.30;;
8556;SDS011;4316;53.840;10.762;2023-02-15T16:19:26;50.27;;;29.97;;
8556;SDS011;4316;53.840;10.762;2023-02-15T16:21:54;51.07;;;31.10;;
8556;SDS011;4316;53.840;10.762;2023-02-15T16:24:32;121.23;;;31.83;;
8556;SDS011;4316;53.840;10.762;2023-02-15T16:27:15;53.33;;;27.67;;
8556;SDS011;4316;53.840;10.762;2023-02-15T16:30:20;128.67;;;30.50;;
8556;SDS011;4316;53.840;10.762;2023-02-15T16:32:47;113.97;;;31.97;;
8556;SDS011;4316;53.840;10.762;2023-02-15T16:35:17;105.40;;;33.27;;
8556;SDS011;4316;53.840;10.762;2023-02-15T16:37:44;130.63;;;31.70;;
8556;SDS011;4316;53.840;10.762;2023-02-15T16:40:35;50.07;;;30.37;;
8556;SDS011;4316;53.840;10.762;2023-02-15T16:43:06;46.27;;;29.40;;
8556;SDS011;4316;53.840;10.762;2023-02-15T16:45:39;53.43;;;32.43;;
8556;SDS011;4316;53.840;10.762;2023-02-15T16:48:07;52.03;;;31.33;;
8556;SDS011;4316;53.840;10.762;2023-02-15T16:50:39;51.33;;;31.93;;
8556;SDS011;4316;53.840;10.762;2023-02-15T16:53:14;105.90;;;29.77;;
8556;SDS011;4316;53.840;10.762;2023-02-15T16:55:44;49.33;;;27.57;;
8556;SDS011;4316;53.840;10.762;2023-02-15T16:58:15;175.30;;;33.50;;
8556;SDS011;4316;53.840;10.762;2023-02-15T17:00:42;46.57;;;28.30;;
8556;SDS011;4316;53.840;10.762;2023-02-15T17:05:45;65.70;;;29.23;;
8556;SDS011;4316;53.840;10.762;2023-02-15T17:08:14;211.83;;;32.10;;
8556;SDS011;4316;53.840;10.762;2023-02-15T17:14:12;374.73;;;34.17;;
8556;SDS011;4316;53.840;10.762;2023-02-15T17:19:09;122.40;;;32.47;;
8556;SDS011;4316;53.840;10.762;2023-02-15T17:22:18;74.97;;;32.83;;
8556;SDS011;4316;53.840;10.762;2023-02-15T17:24:43;55.40;;;30.83;;
8556;SDS011;4316;53.840;10.762;2023-02-15T17:27:16;45.33;;;29.07;;
8556;SDS011;4316;53.840;10.762;2023-02-15T17:30:12;199.70;;;34.93;;
8556;SDS011;4316;53.840;10.762;2023-02-15T17:32:52;175.23;;;32.20;;
8556;SDS011;4316;53.840;10.762;2023-02-15T17:35:25;48.17;;;29.83;;
8556;SDS011;4316;53.840;10.762;2023-02-15T17:38:13;51.10;;;31.23;;
8556;SDS011;4316;53.840;10.762;2023-02-15T17:40:43;116.50;;;29.77;;
8556;SDS011;4316;53.840;10.762;2023-02-15T17:43:09;185.70;;;34.47;;
8556;SDS011;4316;53.840;10.762;2023-02-15T17:45:35;38.00;;;24.90;;
8556;SDS011;4316;53.840;10.762;2023-02-15T17:48:35;35.50;;;24.37;;
8556;SDS011;4316;53.840;10.762;2023-02-15T17:51:03;41.47;;;25.93;;
8556;SDS011;4316;53.840;10.762;2023-02-15T17:53:32;127.40;;;27.67;;
8556;SDS011;4316;53.840;10.762;2023-02-15T17:55:58;67.93;;;27.40;;
8556;SDS011;4316;53.840;10.762;2023-02-15T17:58:24;42.20;;;26.03;;
8556;SDS011;4316;53.840;10.762;2023-02-15T18:00:50;49.03;;;27.20;;
8556;SDS011;4316;53.840;10.762;2023-02-15T18:06:27;40.77;;;25.87;;
8556;SDS011;4316;53.840;10.762;2023-02-15T18:09:12;73.03;;;27.50;;
8556;SDS011;4316;53.840;10.762;2023-02-15T18:11:58;81.00;;;26.13;;
8556;SDS011;4316;53.840;10.762;2023-02-15T18:14:25;34.43;;;24.53;;
8556;SDS011;4316;53.840;10.762;2023-02-15T18:16:51;174.57;;;28.50;;